createdAt,value
2018-07-25T00:00:42.900Z,66.69
2018-07-25T00:03:11.712Z,66.66
2018-07-25T00:05:40.578Z,66.38
2018-07-25T00:08:09.378Z,66.67
2018-07-25T00:10:43.444Z,67.11
2018-07-25T00:13:12.153Z,67.50
2018-07-25T00:15:41.177Z,68.37
2018-07-25T00:18:09.961Z,68.86
2018-07-25T00:20:38.666Z,69.47
2018-07-25T00:23:07.454Z,69.61
2018-07-25T00:25:36.284Z,70.05
2018-07-25T00:28:05.015Z,70.48
2018-07-25T00:30:33.814Z,70.29
2018-07-25T00:33:02.809Z,70.57
2018-07-25T00:35:31.675Z,70.44
2018-07-25T00:38:00.754Z,70.78
2018-07-25T00:40:29.607Z,70.84
2018-07-25T00:42:58.532Z,71.15
2018-07-25T00:45:27.546Z,71.29
2018-07-25T00:47:56.322Z,71.87
2018-07-25T00:50:25.034Z,72.06
2018-07-25T00:52:53.986Z,72.06
2018-07-25T00:55:22.926Z,71.96
2018-07-25T00:57:51.853Z,71.86
2018-07-25T01:00:21.082Z,72.01
2018-07-25T01:02:50.393Z,72.21
2018-07-25T01:05:20.634Z,72.75
2018-07-25T01:07:49.531Z,72.96
2018-07-25T01:10:18.437Z,73.41
2018-07-25T01:12:47.321Z,73.48
2018-07-25T01:15:16.216Z,73.50
2018-07-25T01:17:44.981Z,73.24
2018-07-25T01:20:13.749Z,73.47
2018-07-25T01:22:42.549Z,74.22
2018-07-25T01:25:11.273Z,75.02
2018-07-25T01:27:40.159Z,75.07
2018-07-25T01:30:08.907Z,75.29
2018-07-25T01:32:37.731Z,75.40
2018-07-25T01:35:06.553Z,75.57
2018-07-25T01:37:35.408Z,75.75
2018-07-25T01:40:04.439Z,75.24
2018-07-25T01:42:33.280Z,74.70
2018-07-25T01:45:02.245Z,74.60
2018-07-25T01:47:30.957Z,73.83
2018-07-25T01:49:59.962Z,73.58
2018-07-25T01:52:28.772Z,73.71
2018-07-25T01:54:57.691Z,73.85
2018-07-25T01:57:26.455Z,73.98
2018-07-25T01:59:55.223Z,74.30
2018-07-25T02:02:24.087Z,73.69
2018-07-25T02:04:52.802Z,73.80
2018-07-25T02:07:21.625Z,73.88
2018-07-25T02:09:50.803Z,74.01
2018-07-25T02:12:19.653Z,73.83
2018-07-25T02:14:48.441Z,73.93
2018-07-25T02:17:17.235Z,73.96
2018-07-25T02:19:46.070Z,73.93
2018-07-25T02:22:14.929Z,73.79
2018-07-25T02:24:43.683Z,74.00
2018-07-25T02:27:12.638Z,73.75
2018-07-25T02:29:41.373Z,73.84
2018-07-25T02:32:10.620Z,74.39
2018-07-25T02:34:39.369Z,74.59
2018-07-25T02:37:08.143Z,74.35
2018-07-25T02:39:37.137Z,74.43
2018-07-25T02:42:06.078Z,74.36
2018-07-25T02:44:34.837Z,74.40
2018-07-25T02:47:03.626Z,74.44
2018-07-25T02:49:32.543Z,74.55
2018-07-25T02:52:01.355Z,74.16
2018-07-25T02:54:30.115Z,74.23
2018-07-25T02:56:58.936Z,74.68
2018-07-25T02:59:27.723Z,74.51
2018-07-25T03:01:56.578Z,74.22
2018-07-25T03:04:25.475Z,74.28
2018-07-25T03:06:54.256Z,74.01
2018-07-25T03:09:23.015Z,74.49
2018-07-25T03:11:51.889Z,74.57
2018-07-25T03:14:21.541Z,74.88
2018-07-25T03:16:50.446Z,75.34
2018-07-25T03:19:19.126Z,75.71
2018-07-25T03:21:47.868Z,74.97
2018-07-25T03:24:16.838Z,74.89
2018-07-25T03:26:45.768Z,75.01
2018-07-25T03:29:14.570Z,75.20
2018-07-25T03:31:43.378Z,74.73
2018-07-25T03:34:12.197Z,74.85
2018-07-25T03:36:41.353Z,74.75
2018-07-25T03:39:10.405Z,74.57
2018-07-25T03:41:39.231Z,74.21
2018-07-25T03:44:07.955Z,74.34
2018-07-25T03:46:36.859Z,74.36
2018-07-25T03:49:05.689Z,74.45
2018-07-25T03:51:34.414Z,75.04
2018-07-25T03:54:03.193Z,74.95
2018-07-25T03:56:32.206Z,74.95
2018-07-25T03:59:01.059Z,74.46
2018-07-25T04:01:30.148Z,74.32
2018-07-25T04:03:59.112Z,73.75
2018-07-25T04:06:28.033Z,73.67
2018-07-25T04:08:56.947Z,73.54
2018-07-25T04:11:25.738Z,73.50
2018-07-25T04:13:54.684Z,73.49
2018-07-25T04:16:23.713Z,73.50
2018-07-25T04:18:52.565Z,73.30
2018-07-25T04:21:21.436Z,73.45
2018-07-25T04:23:50.416Z,72.91
2018-07-25T04:26:19.217Z,72.88
2018-07-25T04:28:47.990Z,72.86
2018-07-25T04:31:16.825Z,72.81
2018-07-25T04:33:45.850Z,72.34
2018-07-25T04:36:14.823Z,72.37
2018-07-25T04:38:43.636Z,72.44
2018-07-25T04:41:12.486Z,72.23
2018-07-25T04:43:41.512Z,72.25
2018-07-25T04:46:10.606Z,72.46
2018-07-25T04:48:39.812Z,72.37
2018-07-25T04:51:09.147Z,72.18
2018-07-25T04:53:38.095Z,72.54
2018-07-25T04:56:07.013Z,72.17
2018-07-25T04:58:36.020Z,71.79
2018-07-25T05:01:05.096Z,71.91
2018-07-25T05:03:34.339Z,71.71
2018-07-25T05:06:03.433Z,71.70
2018-07-25T05:08:32.228Z,71.61
2018-07-25T05:11:01.083Z,71.76
2018-07-25T05:13:29.901Z,71.45
2018-07-25T05:15:58.728Z,71.22
2018-07-25T05:18:27.533Z,71.07
2018-07-25T05:20:56.393Z,71.53
2018-07-25T05:23:25.936Z,71.02
2018-07-25T05:25:55.185Z,70.71
2018-07-25T05:28:24.080Z,70.60
2018-07-25T05:30:52.930Z,70.48
2018-07-25T05:33:21.905Z,70.26
2018-07-25T05:35:50.866Z,70.39
2018-07-25T05:38:19.744Z,70.21
2018-07-25T05:40:49.059Z,69.96
2018-07-25T05:43:18.069Z,69.85
2018-07-25T05:45:46.903Z,69.43
2018-07-25T05:48:16.079Z,68.71
2018-07-25T05:50:46.089Z,68.48
2018-07-25T05:53:15.210Z,67.87
2018-07-25T05:55:44.246Z,67.08
2018-07-25T05:58:13.362Z,64.69
2018-07-25T06:00:43.341Z,64.54
2018-07-25T06:03:12.408Z,63.38
2018-07-25T06:05:41.242Z,63.34
2018-07-25T06:08:10.309Z,63.06
2018-07-25T06:10:39.458Z,63.06
2018-07-25T06:13:08.559Z,62.51
2018-07-25T06:15:37.293Z,61.29
2018-07-25T06:18:06.566Z,60.44
2018-07-25T06:20:35.404Z,59.87
2018-07-25T06:23:04.832Z,59.24
2018-07-25T06:25:33.775Z,58.49
2018-07-25T06:28:02.789Z,58.23
2018-07-25T06:30:31.825Z,57.72
2018-07-25T06:33:00.623Z,57.33
2018-07-25T06:35:29.557Z,57.20
2018-07-25T06:38:21.203Z,57.12
2018-07-25T06:40:50.981Z,56.64
2018-07-25T06:43:19.764Z,56.19
2018-07-25T06:45:48.658Z,56.12
2018-07-25T06:48:18.849Z,55.51
2018-07-25T06:50:47.791Z,55.23
2018-07-25T06:53:16.696Z,54.93
2018-07-25T06:55:45.687Z,54.19
2018-07-25T06:58:14.697Z,54.13
2018-07-25T07:00:43.637Z,53.87
2018-07-25T07:03:12.547Z,54.16
2018-07-25T07:05:41.366Z,53.48
2018-07-25T07:08:10.430Z,53.28
2018-07-25T07:10:39.785Z,53.13
2018-07-25T07:13:08.663Z,53.02
2018-07-25T07:15:37.426Z,52.03
2018-07-25T07:18:06.366Z,51.25
2018-07-25T07:20:35.201Z,50.47
2018-07-25T07:23:04.306Z,50.80
2018-07-25T07:25:33.065Z,50.99
2018-07-25T07:28:01.955Z,49.90
2018-07-25T07:30:30.816Z,49.59
2018-07-25T07:32:59.980Z,49.74
2018-07-25T07:35:28.996Z,50.04
2018-07-25T07:37:57.985Z,49.27
2018-07-25T07:40:26.964Z,48.37
2018-07-25T07:42:56.121Z,48.72
2018-07-25T07:45:25.018Z,48.17
2018-07-25T07:47:54.198Z,46.34
2018-07-25T07:50:23.153Z,45.67
2018-07-25T07:52:52.011Z,45.85
2018-07-25T07:55:20.923Z,45.07
2018-07-25T07:57:49.785Z,44.83
2018-07-25T08:00:18.794Z,45.34
2018-07-25T08:02:47.653Z,46.09
2018-07-25T08:05:16.572Z,45.38
2018-07-25T08:07:45.469Z,46.33
2018-07-25T08:10:14.453Z,47.42
2018-07-25T08:12:43.322Z,47.28
2018-07-25T08:15:12.092Z,47.07
2018-07-25T08:17:40.965Z,46.29
2018-07-25T08:20:09.810Z,46.65
2018-07-25T08:22:38.606Z,46.42
2018-07-25T08:25:07.505Z,45.91
2018-07-25T08:27:36.297Z,45.61
2018-07-25T08:30:06.163Z,44.52
2018-07-25T08:32:34.992Z,44.84
2018-07-25T08:35:03.882Z,45.23
2018-07-25T08:37:32.880Z,44.79
2018-07-25T08:40:01.742Z,43.86
2018-07-25T08:42:30.813Z,43.18
2018-07-25T08:44:59.679Z,43.34
2018-07-25T08:47:28.425Z,43.95
2018-07-25T08:49:57.572Z,44.06
2018-07-25T08:52:26.740Z,43.41
2018-07-25T08:54:55.522Z,43.80
2018-07-25T08:57:24.431Z,43.14
2018-07-25T08:59:53.343Z,42.89
2018-07-25T09:02:22.236Z,43.38
2018-07-25T09:04:51.192Z,44.12
2018-07-25T09:07:19.918Z,43.31
2018-07-25T09:09:48.864Z,44.12
2018-07-25T09:12:17.600Z,43.37
2018-07-25T09:14:46.434Z,43.39
2018-07-25T09:17:15.219Z,43.77
2018-07-25T09:19:44.610Z,43.36
2018-07-25T09:22:13.346Z,43.50
2018-07-25T09:24:42.503Z,43.25
2018-07-25T09:27:11.322Z,43.25
2018-07-25T09:29:40.265Z,43.17
2018-07-25T09:32:09.067Z,42.41
2018-07-25T09:34:37.854Z,42.62
2018-07-25T09:37:06.808Z,41.94
2018-07-25T09:39:35.685Z,42.51
2018-07-25T09:42:04.665Z,42.33
2018-07-25T09:44:33.659Z,42.89
2018-07-25T09:47:02.534Z,42.10
2018-07-25T09:49:33.202Z,42.42
2018-07-25T09:52:02.069Z,41.30
2018-07-25T09:54:30.890Z,40.98
2018-07-25T09:56:59.804Z,41.82
2018-07-25T09:59:28.553Z,41.65
2018-07-25T10:01:57.395Z,41.47
2018-07-25T10:04:26.514Z,39.74
2018-07-25T10:06:55.362Z,39.60
2018-07-25T10:09:24.214Z,41.82
2018-07-25T10:11:53.017Z,39.32
2018-07-25T10:14:22.256Z,39.80
2018-07-25T10:16:51.124Z,39.63
2018-07-25T10:19:20.086Z,39.23
2018-07-25T10:21:48.961Z,40.51
2018-07-25T10:24:17.895Z,40.18
2018-07-25T10:26:46.737Z,39.22
2018-07-25T10:29:15.574Z,39.57
2018-07-25T10:31:44.327Z,39.81
2018-07-25T10:34:13.742Z,40.00
2018-07-25T10:36:42.515Z,39.63
2018-07-25T10:39:11.732Z,39.19
2018-07-25T10:41:40.766Z,39.77
2018-07-25T10:44:09.498Z,39.03
2018-07-25T10:46:38.282Z,38.74
2018-07-25T10:49:07.333Z,37.76
2018-07-25T10:51:36.264Z,37.91
2018-07-25T10:54:05.194Z,38.64
2018-07-25T10:56:34.113Z,38.30
2018-07-25T10:59:03.192Z,37.99
2018-07-25T11:01:32.391Z,38.50
2018-07-25T11:04:01.507Z,39.45
2018-07-25T11:06:30.467Z,37.01
2018-07-25T11:08:59.226Z,36.92
2018-07-25T11:11:29.350Z,35.00
2018-07-25T11:13:59.586Z,35.52
2018-07-25T11:16:28.524Z,36.12
2018-07-25T11:18:57.366Z,34.93
2018-07-25T11:21:26.589Z,35.51
2018-07-25T11:23:55.830Z,34.81
2018-07-25T11:26:24.643Z,35.62
2018-07-25T11:28:53.466Z,35.96
2018-07-25T11:31:22.345Z,34.50
2018-07-25T11:33:51.197Z,35.65
2018-07-25T11:36:20.471Z,35.26
2018-07-25T11:38:49.532Z,36.61
2018-07-25T11:41:18.355Z,34.90
2018-07-25T11:43:47.274Z,34.82
2018-07-25T11:46:16.176Z,33.29
2018-07-25T11:48:44.954Z,34.06
2018-07-25T11:51:14.336Z,33.66
2018-07-25T11:53:43.165Z,33.97
2018-07-25T11:56:12.047Z,32.88
2018-07-25T11:58:41.027Z,32.40
2018-07-25T12:01:09.979Z,31.91
2018-07-25T12:03:39.055Z,31.06
2018-07-25T12:06:08.257Z,29.89
2018-07-25T12:08:37.233Z,31.16
2018-07-25T12:11:06.940Z,29.69
2018-07-25T12:13:35.796Z,28.72
2018-07-25T12:16:04.761Z,29.52
2018-07-25T12:18:34.347Z,27.55
2018-07-25T12:21:03.541Z,26.87
2018-07-25T12:23:32.484Z,28.22
2018-07-25T12:26:01.581Z,28.26
2018-07-25T12:28:30.566Z,27.97
2018-07-25T12:30:59.363Z,27.46
2018-07-25T12:33:28.356Z,27.30
2018-07-25T12:35:57.194Z,28.17
2018-07-25T12:38:26.314Z,27.21
2018-07-25T12:40:55.256Z,28.07
2018-07-25T12:43:24.045Z,29.31
2018-07-25T12:45:52.772Z,27.46
2018-07-25T12:48:21.763Z,24.16
2018-07-25T12:50:50.669Z,23.31
2018-07-25T12:53:19.791Z,22.94
2018-07-25T12:55:48.717Z,24.62
2018-07-25T12:58:17.504Z,25.59
2018-07-25T13:00:46.319Z,23.79
2018-07-25T13:03:15.418Z,22.55
2018-07-25T13:05:44.546Z,21.32
2018-07-25T13:08:13.458Z,21.01
2018-07-25T13:10:42.473Z,22.02
2018-07-25T13:13:11.735Z,21.80
2018-07-25T13:15:40.698Z,21.13
2018-07-25T13:18:09.594Z,21.75
2018-07-25T13:20:38.509Z,20.83
2018-07-25T13:23:07.387Z,20.61
2018-07-25T13:25:36.196Z,20.01
2018-07-25T13:28:04.933Z,19.42
2018-07-25T13:30:34.090Z,19.00
2018-07-25T13:33:03.028Z,18.74
2018-07-25T13:35:31.917Z,19.91
2018-07-25T13:38:01.125Z,19.73
2018-07-25T13:40:30.158Z,19.52
2018-07-25T13:42:59.507Z,20.35
2018-07-25T13:45:28.352Z,20.26
2018-07-25T13:47:57.617Z,18.73
2018-07-25T13:50:26.419Z,19.27
2018-07-25T13:52:55.493Z,18.78
2018-07-25T13:55:24.353Z,18.08
2018-07-25T13:57:53.475Z,18.25
2018-07-25T14:00:22.302Z,18.15
2018-07-25T14:02:51.407Z,17.42
2018-07-25T14:05:20.225Z,18.22
2018-07-25T14:07:49.402Z,19.73
2018-07-25T14:10:18.370Z,20.48
2018-07-25T14:12:47.470Z,22.97
2018-07-25T14:15:16.275Z,22.36
2018-07-25T14:17:45.329Z,22.89
2018-07-25T14:20:14.426Z,23.07
2018-07-25T14:22:43.455Z,24.11
2018-07-25T14:25:12.314Z,23.43
2018-07-25T14:27:41.301Z,25.64
2018-07-25T14:30:10.131Z,26.25
2018-07-25T14:32:39.290Z,25.62
2018-07-25T14:35:08.197Z,26.93
2018-07-25T14:37:37.049Z,26.81
2018-07-25T14:40:06.495Z,26.90
2018-07-25T14:42:35.518Z,26.90
2018-07-25T14:45:04.642Z,27.75
2018-07-25T14:47:33.784Z,27.45
2018-07-25T14:50:02.568Z,27.74
2018-07-25T14:52:31.529Z,27.94
2018-07-25T14:55:00.549Z,27.72
2018-07-25T14:57:29.305Z,28.67
2018-07-25T14:59:58.237Z,28.56
2018-07-25T15:02:27.296Z,28.69
2018-07-25T15:04:56.018Z,29.35
2018-07-25T15:07:25.129Z,28.79
2018-07-25T15:09:54.070Z,28.31
2018-07-25T15:12:28.466Z,27.57
2018-07-25T15:14:57.610Z,27.10
2018-07-25T15:17:26.489Z,26.89
2018-07-25T15:19:55.270Z,26.94
2018-07-25T15:22:24.106Z,27.65
2018-07-25T15:24:53.041Z,28.00
2018-07-25T15:27:22.231Z,28.17
2018-07-25T15:29:51.414Z,28.26
2018-07-25T15:32:20.730Z,28.47
2018-07-25T15:34:49.783Z,28.51
2018-07-25T15:37:18.643Z,28.94
2018-07-25T15:39:47.649Z,28.84
2018-07-25T15:42:16.500Z,29.20
2018-07-25T15:44:45.552Z,29.71
2018-07-25T15:47:14.543Z,30.34
2018-07-25T15:49:43.698Z,30.75
2018-07-25T15:52:12.878Z,30.49
2018-07-25T15:54:41.720Z,30.74
2018-07-25T15:57:10.638Z,30.45
2018-07-25T15:59:39.561Z,29.27
2018-07-25T16:02:09.266Z,29.83
2018-07-25T16:04:38.174Z,28.81
2018-07-25T16:07:07.106Z,28.61
2018-07-25T16:09:36.285Z,28.12
2018-07-25T16:12:05.168Z,26.82
2018-07-25T16:14:34.034Z,26.29
2018-07-25T16:17:03.289Z,25.77
2018-07-25T16:19:32.173Z,26.20
2018-07-25T16:22:01.210Z,27.34
2018-07-25T16:24:30.256Z,27.73
2018-07-25T16:26:59.496Z,28.25
2018-07-25T16:29:28.621Z,28.04
2018-07-25T16:31:57.462Z,28.82
2018-07-25T16:34:26.317Z,28.75
2018-07-25T16:36:55.173Z,29.35
2018-07-25T16:39:24.194Z,29.92
2018-07-25T16:41:53.261Z,30.26
2018-07-25T16:44:22.267Z,30.19
2018-07-25T16:46:50.986Z,30.08
2018-07-25T16:49:20.061Z,30.88
2018-07-25T16:51:49.106Z,30.17
2018-07-25T16:54:18.035Z,29.96
2018-07-25T16:56:47.126Z,29.89
2018-07-25T16:59:16.030Z,29.67
2018-07-25T17:01:45.007Z,29.47
2018-07-25T17:04:13.771Z,29.46
2018-07-25T17:06:42.778Z,29.77
2018-07-25T17:09:12.703Z,29.58
2018-07-25T17:11:41.675Z,29.55
2018-07-25T17:14:10.468Z,30.50
2018-07-25T17:16:39.297Z,30.50
2018-07-25T17:19:08.375Z,30.35
2018-07-25T17:21:37.480Z,30.48
2018-07-25T17:24:06.431Z,30.68
2018-07-25T17:26:35.289Z,30.95
2018-07-25T17:29:04.116Z,30.44
2018-07-25T17:31:32.973Z,30.37
2018-07-25T17:34:01.882Z,30.37
2018-07-25T17:36:30.653Z,30.45
2018-07-25T17:38:59.521Z,30.79
2018-07-25T17:41:28.477Z,31.14
2018-07-25T17:43:58.164Z,31.60
2018-07-25T17:46:27.160Z,31.86
2018-07-25T17:48:56.222Z,31.46
2018-07-25T17:51:24.928Z,31.69
2018-07-25T17:53:53.738Z,31.14
2018-07-25T17:56:23.222Z,31.20
2018-07-25T17:58:52.257Z,31.56
2018-07-25T18:01:21.106Z,31.36
2018-07-25T18:03:49.919Z,31.09
2018-07-25T18:06:18.868Z,30.98
2018-07-25T18:08:48.088Z,30.52
2018-07-25T18:11:17.051Z,30.04
2018-07-25T18:13:51.251Z,30.67
2018-07-25T18:16:20.172Z,30.21
2018-07-25T18:18:49.250Z,29.84
2018-07-25T18:21:18.225Z,30.35
2018-07-25T18:23:47.210Z,30.63
2018-07-25T18:26:16.138Z,31.62
2018-07-25T18:28:44.912Z,32.03
2018-07-25T18:31:13.943Z,32.51
2018-07-25T18:33:42.952Z,32.83
2018-07-25T18:36:11.863Z,32.97
2018-07-25T18:38:40.868Z,33.56
2018-07-25T18:41:10.058Z,33.59
2018-07-25T18:43:38.861Z,34.75
2018-07-25T18:46:07.908Z,35.02
2018-07-25T18:48:36.821Z,36.00
2018-07-25T18:51:05.730Z,37.05
2018-07-25T18:53:35.025Z,37.61
2018-07-25T18:56:04.100Z,38.44
2018-07-25T18:58:33.222Z,38.55
2018-07-25T19:01:01.974Z,38.96
2018-07-25T19:03:30.812Z,39.22
2018-07-25T19:05:59.819Z,39.73
2018-07-25T19:08:28.866Z,40.10
2018-07-25T19:10:57.739Z,40.27
2018-07-25T19:13:31.759Z,40.60
2018-07-25T19:16:00.694Z,41.18
2018-07-25T19:18:29.516Z,41.20
2018-07-25T19:20:58.341Z,41.21
2018-07-25T19:23:27.969Z,41.31
2018-07-25T19:25:56.646Z,42.42
2018-07-25T19:28:25.861Z,42.70
2018-07-25T19:30:54.618Z,43.14
2018-07-25T19:33:23.389Z,42.62
2018-07-25T19:35:52.275Z,42.74
2018-07-25T19:38:21.133Z,43.15
2018-07-25T19:40:49.889Z,44.40
2018-07-25T19:43:18.777Z,44.31
2018-07-25T19:45:47.721Z,45.22
2018-07-25T19:48:16.562Z,44.99
2018-07-25T19:50:45.357Z,44.95
2018-07-25T19:53:14.399Z,45.43
2018-07-25T19:55:43.349Z,46.46
2018-07-25T19:58:12.333Z,45.97
2018-07-25T20:00:41.291Z,45.69
2018-07-25T20:03:10.159Z,45.48
2018-07-25T20:05:39.145Z,46.04
2018-07-25T20:08:07.951Z,46.30
2018-07-25T20:10:36.826Z,46.35
2018-07-25T20:13:05.846Z,46.65
2018-07-25T20:15:39.795Z,46.86
2018-07-25T20:18:08.899Z,47.17
2018-07-25T20:20:37.783Z,47.47
2018-07-25T20:23:06.792Z,48.26
2018-07-25T20:25:35.485Z,48.57
2018-07-25T20:28:04.508Z,48.87
2018-07-25T20:30:33.415Z,49.62
2018-07-25T20:33:02.325Z,49.54
2018-07-25T20:35:31.187Z,49.72
2018-07-25T20:37:59.926Z,50.49
2018-07-25T20:40:28.737Z,50.11
2018-07-25T20:42:57.526Z,50.15
2018-07-25T20:45:26.429Z,50.53
2018-07-25T20:47:55.254Z,50.84
2018-07-25T20:50:24.192Z,50.90
2018-07-25T20:52:53.095Z,51.52
2018-07-25T20:55:21.957Z,51.26
2018-07-25T20:57:50.767Z,51.28
2018-07-25T21:00:23.689Z,51.83
2018-07-25T21:02:52.648Z,51.13
2018-07-25T21:05:21.605Z,51.70
2018-07-25T21:07:50.529Z,51.80
2018-07-25T21:10:19.436Z,51.93
2018-07-25T21:12:48.356Z,51.95
2018-07-25T21:15:17.592Z,51.89
2018-07-25T21:17:46.628Z,52.31
2018-07-25T21:20:15.603Z,53.12
2018-07-25T21:22:44.509Z,52.92
2018-07-25T21:25:13.317Z,53.17
2018-07-25T21:27:42.157Z,53.22
2018-07-25T21:30:11.171Z,52.92
2018-07-25T21:32:40.023Z,53.52
2018-07-25T21:35:09.173Z,53.50
2018-07-25T21:37:38.026Z,53.97
2018-07-25T21:40:06.809Z,54.56
2018-07-25T21:42:35.636Z,54.68
2018-07-25T21:45:04.511Z,54.78
2018-07-25T21:47:33.408Z,55.47
2018-07-25T21:50:02.199Z,55.94
2018-07-25T21:52:31.090Z,56.16
2018-07-25T21:54:59.965Z,56.19
2018-07-25T21:57:29.162Z,57.12
2018-07-25T21:59:57.993Z,56.69
2018-07-25T22:02:26.716Z,56.22
2018-07-25T22:04:55.852Z,56.97
2018-07-25T22:07:24.677Z,56.99
2018-07-25T22:09:53.432Z,58.13
2018-07-25T22:12:22.367Z,57.93
2018-07-25T22:14:51.193Z,58.43
2018-07-25T22:17:20.163Z,58.56
2018-07-25T22:19:49.029Z,58.11
2018-07-25T22:22:17.861Z,58.61
2018-07-25T22:24:46.683Z,58.55
2018-07-25T22:27:15.419Z,58.68
2018-07-25T22:29:44.330Z,58.43
2018-07-25T22:32:13.388Z,58.48
2018-07-25T22:34:42.442Z,58.29
2018-07-25T22:37:11.536Z,59.39
2018-07-25T22:39:40.410Z,59.46
2018-07-25T22:42:09.420Z,59.04
2018-07-25T22:44:38.334Z,59.09
2018-07-25T22:47:07.305Z,59.04
2018-07-25T22:49:35.963Z,59.45
2018-07-25T22:52:04.666Z,59.00
2018-07-25T22:54:33.359Z,59.15
2018-07-25T22:57:02.276Z,60.14
2018-07-25T22:59:31.053Z,60.44
2018-07-25T23:01:59.865Z,60.80
2018-07-25T23:04:28.641Z,61.01
2018-07-25T23:06:57.527Z,61.38
2018-07-25T23:09:26.512Z,61.21
2018-07-25T23:11:55.531Z,61.77
2018-07-25T23:14:24.739Z,62.36
2018-07-25T23:16:53.536Z,62.40
2018-07-25T23:19:22.456Z,62.58
2018-07-25T23:21:51.281Z,62.01
2018-07-25T23:24:20.972Z,62.34
2018-07-25T23:26:49.782Z,63.20
2018-07-25T23:29:18.624Z,62.87
2018-07-25T23:31:47.707Z,63.06
2018-07-25T23:34:16.430Z,63.14
2018-07-25T23:36:45.478Z,63.31
2018-07-25T23:39:14.345Z,63.82
2018-07-25T23:41:43.301Z,64.25
2018-07-25T23:44:12.161Z,64.28
2018-07-25T23:46:40.989Z,64.47
2018-07-25T23:49:09.832Z,65.06
2018-07-25T23:51:38.709Z,65.54
2018-07-25T23:54:07.519Z,65.43
2018-07-25T23:56:36.230Z,65.49
2018-07-25T23:59:05.198Z,65.75
